sensor_id;sensor_type;location;lat;lon;timestamp;P1;durP1;ratioP1;P2;durP2;ratioP2
7571;SDS011;3827;49.928;8.548;2022-10-18T00:00:01;5.43;;;4.97;;
7571;SDS011;3827;49.928;8.548;2022-10-18T00:02:29;4.63;;;4.25;;
7571;SDS011;3827;49.928;8.548;2022-10-18T00:04:56;5.25;;;4.85;;
7571;SDS011;3827;49.928;8.548;2022-10-18T00:07:22;5.10;;;4.70;;
7571;SDS011;3827;49.928;8.548;2022-10-18T00:09:50;5.50;;;5.10;;
7571;SDS011;3827;49.928;8.548;2022-10-18T00:12:17;5.97;;;5.20;;
7571;SDS011;3827;49.928;8.548;2022-10-18T00:14:47;5.75;;;5.13;;
7571;SDS011;3827;49.928;8.548;2022-10-18T00:17:14;5.10;;;4.60;;
7571;SDS011;3827;49.928;8.548;2022-10-18T00:19:41;6.68;;;5.60;;
7571;SDS011;3827;49.928;8.548;2022-10-18T00:22:08;6.93;;;6.15;;
7571;SDS011;3827;49.928;8.548;2022-10-18T00:24:35;6.47;;;5.50;;
7571;SDS011;3827;49.928;8.548;2022-10-18T00:27:03;5.30;;;4.90;;
7571;SDS011;3827;49.928;8.548;2022-10-18T00:29:29;7.13;;;5.17;;
7571;SDS011;3827;49.928;8.548;2022-10-18T00:31:56;5.10;;;4.63;;
7571;SDS011;3827;49.928;8.548;2022-10-18T00:34:23;5.97;;;5.03;;
7571;SDS011;3827;49.928;8.548;2022-10-18T00:36:50;5.10;;;4.70;;
7571;SDS011;3827;49.928;8.548;2022-10-18T00:39:17;7.68;;;5.40;;
7571;SDS011;3827;49.928;8.548;2022-10-18T00:41:46;5.13;;;4.57;;
7571;SDS011;3827;49.928;8.548;2022-10-18T00:47:19;8.07;;;6.00;;
7571;SDS011;3827;49.928;8.548;2022-10-18T00:49:46;5.53;;;5.07;;
7571;SDS011;3827;49.928;8.548;2022-10-18T00:52:21;4.70;;;4.30;;
7571;SDS011;3827;49.928;8.548;2022-10-18T00:54:53;5.93;;;5.05;;
7571;SDS011;3827;49.928;8.548;2022-10-18T00:57:21;5.05;;;4.65;;
7571;SDS011;3827;49.928;8.548;2022-10-18T00:59:49;4.40;;;4.10;;
7571;SDS011;3827;49.928;8.548;2022-10-18T01:02:16;4.82;;;4.43;;
7571;SDS011;3827;49.928;8.548;2022-10-18T01:04:45;4.60;;;4.10;;
7571;SDS011;3827;49.928;8.548;2022-10-18T01:07:15;5.40;;;4.90;;
7571;SDS011;3827;49.928;8.548;2022-10-18T01:10:10;4.78;;;4.38;;
7571;SDS011;3827;49.928;8.548;2022-10-18T01:12:48;5.07;;;4.60;;
7571;SDS011;3827;49.928;8.548;2022-10-18T01:15:25;4.85;;;4.45;;
7571;SDS011;3827;49.928;8.548;2022-10-18T01:17:58;5.93;;;4.97;;
7571;SDS011;3827;49.928;8.548;2022-10-18T01:23:50;5.43;;;4.82;;
7571;SDS011;3827;49.928;8.548;2022-10-18T01:26:47;5.27;;;4.70;;
7571;SDS011;3827;49.928;8.548;2022-10-18T01:32:16;4.88;;;4.47;;
7571;SDS011;3827;49.928;8.548;2022-10-18T01:34:46;5.03;;;4.63;;
7571;SDS011;3827;49.928;8.548;2022-10-18T01:37:17;6.27;;;4.80;;
7571;SDS011;3827;49.928;8.548;2022-10-18T01:39:46;7.22;;;4.85;;
7571;SDS011;3827;49.928;8.548;2022-10-18T01:42:16;8.80;;;5.07;;
7571;SDS011;3827;49.928;8.548;2022-10-18T01:44:45;7.10;;;5.45;;
7571;SDS011;3827;49.928;8.548;2022-10-18T01:47:16;8.57;;;5.50;;
7571;SDS011;3827;49.928;8.548;2022-10-18T01:49:44;6.47;;;5.63;;
7571;SDS011;3827;49.928;8.548;2022-10-18T01:52:11;5.55;;;4.97;;
7571;SDS011;3827;49.928;8.548;2022-10-18T01:54:40;7.35;;;5.68;;
7571;SDS011;3827;49.928;8.548;2022-10-18T01:57:11;7.07;;;5.87;;
7571;SDS011;3827;49.928;8.548;2022-10-18T01:59:46;6.95;;;5.55;;
7571;SDS011;3827;49.928;8.548;2022-10-18T02:02:24;8.82;;;6.15;;
7571;SDS011;3827;49.928;8.548;2022-10-18T02:05:05;6.32;;;5.72;;
7571;SDS011;3827;49.928;8.548;2022-10-18T02:07:41;5.15;;;4.75;;
7571;SDS011;3827;49.928;8.548;2022-10-18T02:10:14;5.13;;;4.72;;
7571;SDS011;3827;49.928;8.548;2022-10-18T02:12:46;5.63;;;5.13;;
7571;SDS011;3827;49.928;8.548;2022-10-18T02:15:15;6.90;;;5.30;;
7571;SDS011;3827;49.928;8.548;2022-10-18T02:17:47;5.20;;;4.70;;
7571;SDS011;3827;49.928;8.548;2022-10-18T02:20:16;6.20;;;5.60;;
7571;SDS011;3827;49.928;8.548;2022-10-18T02:22:46;6.43;;;4.73;;
7571;SDS011;3827;49.928;8.548;2022-10-18T02:25:16;7.57;;;5.45;;
7571;SDS011;3827;49.928;8.548;2022-10-18T02:27:46;6.72;;;6.03;;
7571;SDS011;3827;49.928;8.548;2022-10-18T02:30:13;8.75;;;6.57;;
7571;SDS011;3827;49.928;8.548;2022-10-18T02:32:40;7.82;;;6.40;;
7571;SDS011;3827;49.928;8.548;2022-10-18T02:35:15;7.47;;;5.50;;
7571;SDS011;3827;49.928;8.548;2022-10-18T02:37:47;7.47;;;5.90;;
7571;SDS011;3827;49.928;8.548;2022-10-18T02:40:16;8.30;;;6.60;;
7571;SDS011;3827;49.928;8.548;2022-10-18T02:42:44;9.65;;;7.30;;
7571;SDS011;3827;49.928;8.548;2022-10-18T02:45:13;11.07;;;7.50;;
7571;SDS011;3827;49.928;8.548;2022-10-18T02:47:40;11.55;;;7.78;;
7571;SDS011;3827;49.928;8.548;2022-10-18T02:50:08;12.10;;;7.75;;
7571;SDS011;3827;49.928;8.548;2022-10-18T02:52:36;7.30;;;6.60;;
7571;SDS011;3827;49.928;8.548;2022-10-18T02:55:03;7.75;;;6.60;;
7571;SDS011;3827;49.928;8.548;2022-10-18T02:57:31;8.73;;;7.75;;
7571;SDS011;3827;49.928;8.548;2022-10-18T02:59:58;7.60;;;6.88;;
7571;SDS011;3827;49.928;8.548;2022-10-18T03:02:25;7.55;;;6.85;;
7571;SDS011;3827;49.928;8.548;2022-10-18T03:04:52;7.93;;;7.00;;
7571;SDS011;3827;49.928;8.548;2022-10-18T03:07:19;8.27;;;7.13;;
7571;SDS011;3827;49.928;8.548;2022-10-18T03:09:47;8.40;;;7.25;;
7571;SDS011;3827;49.928;8.548;2022-10-18T03:12:14;10.25;;;7.35;;
7571;SDS011;3827;49.928;8.548;2022-10-18T03:14:41;10.20;;;7.07;;
7571;SDS011;3827;49.928;8.548;2022-10-18T03:17:07;10.52;;;7.75;;
7571;SDS011;3827;49.928;8.548;2022-10-18T03:19:34;11.30;;;7.72;;
7571;SDS011;3827;49.928;8.548;2022-10-18T03:22:02;12.48;;;8.30;;
7571;SDS011;3827;49.928;8.548;2022-10-18T03:24:29;10.13;;;8.43;;
7571;SDS011;3827;49.928;8.548;2022-10-18T03:26:57;15.55;;;9.25;;
7571;SDS011;3827;49.928;8.548;2022-10-18T03:29:24;12.65;;;9.50;;
7571;SDS011;3827;49.928;8.548;2022-10-18T03:31:51;12.65;;;9.88;;
7571;SDS011;3827;49.928;8.548;2022-10-18T03:34:18;14.97;;;10.33;;
7571;SDS011;3827;49.928;8.548;2022-10-18T03:36:44;14.32;;;12.07;;
7571;SDS011;3827;49.928;8.548;2022-10-18T03:39:11;14.93;;;11.70;;
7571;SDS011;3827;49.928;8.548;2022-10-18T03:41:38;13.05;;;11.75;;
7571;SDS011;3827;49.928;8.548;2022-10-18T03:44:06;16.25;;;12.40;;
7571;SDS011;3827;49.928;8.548;2022-10-18T03:46:33;14.13;;;12.77;;
7571;SDS011;3827;49.928;8.548;2022-10-18T03:49:00;14.63;;;12.13;;
7571;SDS011;3827;49.928;8.548;2022-10-18T03:51:27;12.65;;;11.43;;
7571;SDS011;3827;49.928;8.548;2022-10-18T03:53:54;13.75;;;11.80;;
7571;SDS011;3827;49.928;8.548;2022-10-18T03:56:20;13.43;;;11.98;;
7571;SDS011;3827;49.928;8.548;2022-10-18T03:58:47;12.38;;;11.18;;
7571;SDS011;3827;49.928;8.548;2022-10-18T04:01:15;13.82;;;12.15;;
7571;SDS011;3827;49.928;8.548;2022-10-18T04:03:42;12.13;;;10.95;;
7571;SDS011;3827;49.928;8.548;2022-10-18T04:06:09;12.98;;;11.70;;
7571;SDS011;3827;49.928;8.548;2022-10-18T04:08:36;11.95;;;10.85;;
7571;SDS011;3827;49.928;8.548;2022-10-18T04:11:04;12.68;;;11.38;;
7571;SDS011;3827;49.928;8.548;2022-10-18T04:13:32;11.63;;;10.52;;
7571;SDS011;3827;49.928;8.548;2022-10-18T04:16:00;13.30;;;11.93;;
7571;SDS011;3827;49.928;8.548;2022-10-18T04:18:28;13.48;;;12.13;;
7571;SDS011;3827;49.928;8.548;2022-10-18T04:20:54;15.25;;;13.40;;
7571;SDS011;3827;49.928;8.548;2022-10-18T04:23:21;16.60;;;14.10;;
7571;SDS011;3827;49.928;8.548;2022-10-18T04:25:48;16.63;;;14.93;;
7571;SDS011;3827;49.928;8.548;2022-10-18T04:28:15;15.05;;;13.57;;
7571;SDS011;3827;49.928;8.548;2022-10-18T04:30:42;15.55;;;14.15;;
7571;SDS011;3827;49.928;8.548;2022-10-18T04:33:13;14.67;;;13.27;;
7571;SDS011;3827;49.928;8.548;2022-10-18T04:35:41;17.65;;;15.52;;
7571;SDS011;3827;49.928;8.548;2022-10-18T04:38:08;16.42;;;15.02;;
7571;SDS011;3827;49.928;8.548;2022-10-18T04:40:35;15.77;;;14.48;;
7571;SDS011;3827;49.928;8.548;2022-10-18T04:43:02;14.73;;;13.45;;
7571;SDS011;3827;49.928;8.548;2022-10-18T04:45:29;15.35;;;13.95;;
7571;SDS011;3827;49.928;8.548;2022-10-18T04:47:56;14.50;;;13.07;;
7571;SDS011;3827;49.928;8.548;2022-10-18T04:50:23;13.35;;;12.02;;
7571;SDS011;3827;49.928;8.548;2022-10-18T04:52:51;16.55;;;15.07;;
7571;SDS011;3827;49.928;8.548;2022-10-18T04:55:18;14.30;;;13.00;;
7571;SDS011;3827;49.928;8.548;2022-10-18T04:57:45;13.57;;;12.47;;
7571;SDS011;3827;49.928;8.548;2022-10-18T05:00:12;13.30;;;12.10;;
7571;SDS011;3827;49.928;8.548;2022-10-18T05:02:40;13.33;;;12.13;;
7571;SDS011;3827;49.928;8.548;2022-10-18T05:05:06;12.98;;;11.88;;
7571;SDS011;3827;49.928;8.548;2022-10-18T05:07:33;14.15;;;12.85;;
7571;SDS011;3827;49.928;8.548;2022-10-18T05:10:02;12.98;;;11.85;;
7571;SDS011;3827;49.928;8.548;2022-10-18T05:12:29;12.90;;;11.80;;
7571;SDS011;3827;49.928;8.548;2022-10-18T05:14:56;13.23;;;12.10;;
7571;SDS011;3827;49.928;8.548;2022-10-18T05:17:23;15.07;;;13.67;;
7571;SDS011;3827;49.928;8.548;2022-10-18T05:19:50;13.68;;;12.48;;
7571;SDS011;3827;49.928;8.548;2022-10-18T05:22:17;14.00;;;12.80;;
7571;SDS011;3827;49.928;8.548;2022-10-18T05:24:43;14.15;;;12.95;;
7571;SDS011;3827;49.928;8.548;2022-10-18T05:27:11;14.25;;;12.95;;
7571;SDS011;3827;49.928;8.548;2022-10-18T05:29:38;15.45;;;14.05;;
7571;SDS011;3827;49.928;8.548;2022-10-18T05:32:05;13.90;;;12.70;;
7571;SDS011;3827;49.928;8.548;2022-10-18T05:34:32;12.65;;;11.55;;
7571;SDS011;3827;49.928;8.548;2022-10-18T05:36:59;14.73;;;13.32;;
7571;SDS011;3827;49.928;8.548;2022-10-18T05:39:25;14.30;;;13.00;;
7571;SDS011;3827;49.928;8.548;2022-10-18T05:41:52;13.20;;;12.13;;
7571;SDS011;3827;49.928;8.548;2022-10-18T05:44:21;14.30;;;12.90;;
7571;SDS011;3827;49.928;8.548;2022-10-18T05:46:47;14.60;;;13.10;;
7571;SDS011;3827;49.928;8.548;2022-10-18T05:49:14;15.15;;;12.98;;
7571;SDS011;3827;49.928;8.548;2022-10-18T05:51:41;13.70;;;12.55;;
7571;SDS011;3827;49.928;8.548;2022-10-18T05:54:08;12.95;;;11.85;;
7571;SDS011;3827;49.928;8.548;2022-10-18T05:56:36;13.05;;;11.90;;
7571;SDS011;3827;49.928;8.548;2022-10-18T05:59:03;12.85;;;11.80;;
7571;SDS011;3827;49.928;8.548;2022-10-18T06:01:35;12.70;;;11.60;;
7571;SDS011;3827;49.928;8.548;2022-10-18T06:04:02;14.57;;;13.07;;
7571;SDS011;3827;49.928;8.548;2022-10-18T06:06:29;17.38;;;14.13;;
7571;SDS011;3827;49.928;8.548;2022-10-18T06:08:56;16.73;;;15.05;;
7571;SDS011;3827;49.928;8.548;2022-10-18T06:11:23;17.75;;;15.85;;
7571;SDS011;3827;49.928;8.548;2022-10-18T06:13:50;17.33;;;15.55;;
7571;SDS011;3827;49.928;8.548;2022-10-18T06:16:18;13.70;;;12.60;;
7571;SDS011;3827;49.928;8.548;2022-10-18T06:18:47;16.13;;;14.55;;
7571;SDS011;3827;49.928;8.548;2022-10-18T06:21:15;16.88;;;15.10;;
7571;SDS011;3827;49.928;8.548;2022-10-18T06:23:42;16.35;;;14.77;;
7571;SDS011;3827;49.928;8.548;2022-10-18T06:26:13;16.87;;;15.00;;
7571;SDS011;3827;49.928;8.548;2022-10-18T06:28:39;16.90;;;15.20;;
7571;SDS011;3827;49.928;8.548;2022-10-18T06:31:06;18.27;;;15.95;;
7571;SDS011;3827;49.928;8.548;2022-10-18T06:33:34;16.58;;;15.07;;
7571;SDS011;3827;49.928;8.548;2022-10-18T06:36:04;16.10;;;14.60;;
7571;SDS011;3827;49.928;8.548;2022-10-18T06:38:32;16.03;;;14.53;;
7571;SDS011;3827;49.928;8.548;2022-10-18T06:41:00;18.38;;;16.48;;
7571;SDS011;3827;49.928;8.548;2022-10-18T06:43:27;18.52;;;16.45;;
7571;SDS011;3827;49.928;8.548;2022-10-18T06:45:54;18.95;;;16.90;;
7571;SDS011;3827;49.928;8.548;2022-10-18T06:48:22;19.33;;;17.38;;
7571;SDS011;3827;49.928;8.548;2022-10-18T06:50:50;20.05;;;18.02;;
7571;SDS011;3827;49.928;8.548;2022-10-18T06:53:18;19.92;;;17.77;;
7571;SDS011;3827;49.928;8.548;2022-10-18T06:55:45;23.65;;;20.05;;
7571;SDS011;3827;49.928;8.548;2022-10-18T06:58:12;24.73;;;20.38;;
7571;SDS011;3827;49.928;8.548;2022-10-18T07:00:39;20.55;;;18.45;;
7571;SDS011;3827;49.928;8.548;2022-10-18T07:03:06;17.73;;;16.02;;
7571;SDS011;3827;49.928;8.548;2022-10-18T07:05:33;15.82;;;14.52;;
7571;SDS011;3827;49.928;8.548;2022-10-18T07:08:00;16.15;;;14.73;;
7571;SDS011;3827;49.928;8.548;2022-10-18T07:10:28;17.58;;;15.88;;
7571;SDS011;3827;49.928;8.548;2022-10-18T07:12:55;18.00;;;16.27;;
7571;SDS011;3827;49.928;8.548;2022-10-18T07:15:22;18.52;;;16.73;;
7571;SDS011;3827;49.928;8.548;2022-10-18T07:17:49;16.88;;;15.27;;
7571;SDS011;3827;49.928;8.548;2022-10-18T07:20:16;16.83;;;15.18;;
7571;SDS011;3827;49.928;8.548;2022-10-18T07:22:43;17.45;;;15.80;;
7571;SDS011;3827;49.928;8.548;2022-10-18T07:25:10;17.33;;;15.48;;
7571;SDS011;3827;49.928;8.548;2022-10-18T07:27:39;16.40;;;14.90;;
7571;SDS011;3827;49.928;8.548;2022-10-18T07:30:07;16.35;;;14.75;;
7571;SDS011;3827;49.928;8.548;2022-10-18T07:32:36;16.05;;;14.63;;
7571;SDS011;3827;49.928;8.548;2022-10-18T07:35:03;16.27;;;14.77;;
7571;SDS011;3827;49.928;8.548;2022-10-18T07:37:30;16.63;;;15.02;;
7571;SDS011;3827;49.928;8.548;2022-10-18T07:39:57;15.93;;;14.18;;
7571;SDS011;3827;49.928;8.548;2022-10-18T07:42:23;13.90;;;12.70;;
7571;SDS011;3827;49.928;8.548;2022-10-18T07:44:52;14.10;;;12.70;;
7571;SDS011;3827;49.928;8.548;2022-10-18T07:47:19;13.37;;;12.10;;
7571;SDS011;3827;49.928;8.548;2022-10-18T07:49:45;13.33;;;12.20;;
7571;SDS011;3827;49.928;8.548;2022-10-18T07:52:12;13.60;;;12.38;;
7571;SDS011;3827;49.928;8.548;2022-10-18T07:54:39;14.65;;;13.25;;
7571;SDS011;3827;49.928;8.548;2022-10-18T07:57:06;13.38;;;12.27;;
7571;SDS011;3827;49.928;8.548;2022-10-18T07:59:33;13.25;;;12.05;;
7571;SDS011;3827;49.928;8.548;2022-10-18T08:02:01;14.13;;;12.93;;
7571;SDS011;3827;49.928;8.548;2022-10-18T08:04:28;13.07;;;11.98;;
7571;SDS011;3827;49.928;8.548;2022-10-18T08:06:54;13.40;;;12.20;;
7571;SDS011;3827;49.928;8.548;2022-10-18T08:09:21;14.00;;;12.70;;
7571;SDS011;3827;49.928;8.548;2022-10-18T08:11:48;13.05;;;11.95;;
7571;SDS011;3827;49.928;8.548;2022-10-18T08:14:15;12.48;;;11.48;;
7571;SDS011;3827;49.928;8.548;2022-10-18T08:16:42;12.98;;;11.77;;
7571;SDS011;3827;49.928;8.548;2022-10-18T08:19:10;12.73;;;11.73;;
7571;SDS011;3827;49.928;8.548;2022-10-18T08:21:37;12.25;;;11.15;;
7571;SDS011;3827;49.928;8.548;2022-10-18T08:24:04;13.05;;;11.85;;
7571;SDS011;3827;49.928;8.548;2022-10-18T08:26:31;13.63;;;12.43;;
7571;SDS011;3827;49.928;8.548;2022-10-18T08:28:58;12.30;;;11.10;;
7571;SDS011;3827;49.928;8.548;2022-10-18T08:31:24;12.82;;;11.00;;
7571;SDS011;3827;49.928;8.548;2022-10-18T08:33:53;12.48;;;11.23;;
7571;SDS011;3827;49.928;8.548;2022-10-18T08:36:21;12.60;;;11.50;;
7571;SDS011;3827;49.928;8.548;2022-10-18T08:38:48;11.83;;;10.67;;
7571;SDS011;3827;49.928;8.548;2022-10-18T08:41:18;10.77;;;9.68;;
7571;SDS011;3827;49.928;8.548;2022-10-18T08:44:02;11.37;;;10.27;;
7571;SDS011;3827;49.928;8.548;2022-10-18T08:46:32;12.48;;;10.30;;
7571;SDS011;3827;49.928;8.548;2022-10-18T08:49:02;10.90;;;9.48;;
7571;SDS011;3827;49.928;8.548;2022-10-18T08:51:33;8.93;;;7.75;;
7571;SDS011;3827;49.928;8.548;2022-10-18T08:54:05;9.30;;;8.02;;
7571;SDS011;3827;49.928;8.548;2022-10-18T08:56:36;8.73;;;7.43;;
7571;SDS011;3827;49.928;8.548;2022-10-18T08:59:04;8.40;;;7.68;;
7571;SDS011;3827;49.928;8.548;2022-10-18T09:01:35;8.70;;;7.67;;
7571;SDS011;3827;49.928;8.548;2022-10-18T09:04:17;9.25;;;8.00;;
7571;SDS011;3827;49.928;8.548;2022-10-18T09:07:05;11.50;;;8.40;;
7571;SDS011;3827;49.928;8.548;2022-10-18T09:09:45;9.30;;;8.50;;
7571;SDS011;3827;49.928;8.548;2022-10-18T09:12:26;9.73;;;8.13;;
7571;SDS011;3827;49.928;8.548;2022-10-18T09:15:11;9.20;;;8.30;;
7571;SDS011;3827;49.928;8.548;2022-10-18T09:17:44;9.75;;;8.80;;
7571;SDS011;3827;49.928;8.548;2022-10-18T09:20:33;8.60;;;7.78;;
7571;SDS011;3827;49.928;8.548;2022-10-18T09:23:12;7.78;;;7.07;;
7571;SDS011;3827;49.928;8.548;2022-10-18T09:25:44;9.80;;;7.07;;
7571;SDS011;3827;49.928;8.548;2022-10-18T09:28:14;7.25;;;6.65;;
7571;SDS011;3827;49.928;8.548;2022-10-18T09:30:47;7.75;;;6.50;;
7571;SDS011;3827;49.928;8.548;2022-10-18T09:36:08;8.35;;;6.55;;
7571;SDS011;3827;49.928;8.548;2022-10-18T09:38:41;6.60;;;5.88;;
7571;SDS011;3827;49.928;8.548;2022-10-18T09:41:12;6.78;;;5.72;;
7571;SDS011;3827;49.928;8.548;2022-10-18T09:43:48;6.22;;;5.10;;
7571;SDS011;3827;49.928;8.548;2022-10-18T09:46:19;5.30;;;4.40;;
7571;SDS011;3827;49.928;8.548;2022-10-18T09:48:51;4.45;;;3.72;;
7571;SDS011;3827;49.928;8.548;2022-10-18T09:51:22;2.85;;;2.40;;
7571;SDS011;3827;49.928;8.548;2022-10-18T09:56:44;2.90;;;1.90;;
7571;SDS011;3827;49.928;8.548;2022-10-18T10:02:03;5.03;;;2.83;;
7571;SDS011;3827;49.928;8.548;2022-10-18T10:04:30;1.42;;;1.30;;
7571;SDS011;3827;49.928;8.548;2022-10-18T10:06:59;1.80;;;1.10;;
7571;SDS011;3827;49.928;8.548;2022-10-18T10:09:28;1.40;;;1.30;;
7571;SDS011;3827;49.928;8.548;2022-10-18T10:11:57;2.00;;;1.30;;
7571;SDS011;3827;49.928;8.548;2022-10-18T10:14:24;2.35;;;1.60;;
7571;SDS011;3827;49.928;8.548;2022-10-18T10:16:54;2.10;;;1.10;;
7571;SDS011;3827;49.928;8.548;2022-10-18T10:19:25;1.38;;;0.95;;
7571;SDS011;3827;49.928;8.548;2022-10-18T10:21:56;1.95;;;0.95;;
7571;SDS011;3827;49.928;8.548;2022-10-18T10:24:36;2.08;;;1.10;;
7571;SDS011;3827;49.928;8.548;2022-10-18T10:27:16;1.73;;;1.10;;
7571;SDS011;3827;49.928;8.548;2022-10-18T10:29:47;1.20;;;1.00;;
7571;SDS011;3827;49.928;8.548;2022-10-18T10:32:21;1.80;;;0.82;;
7571;SDS011;3827;49.928;8.548;2022-10-18T10:34:49;1.20;;;1.10;;
7571;SDS011;3827;49.928;8.548;2022-10-18T10:37:23;2.13;;;1.40;;
7571;SDS011;3827;49.928;8.548;2022-10-18T10:40:16;1.40;;;1.30;;
7571;SDS011;3827;49.928;8.548;2022-10-18T10:42:50;1.70;;;1.27;;
7571;SDS011;3827;49.928;8.548;2022-10-18T10:45:36;1.50;;;1.23;;
7571;SDS011;3827;49.928;8.548;2022-10-18T10:48:12;1.90;;;1.33;;
7571;SDS011;3827;49.928;8.548;2022-10-18T10:50:48;1.20;;;1.10;;
7571;SDS011;3827;49.928;8.548;2022-10-18T10:56:14;1.58;;;1.20;;
7571;SDS011;3827;49.928;8.548;2022-10-18T10:58:45;1.50;;;1.35;;
7571;SDS011;3827;49.928;8.548;2022-10-18T11:01:26;1.38;;;0.80;;
7571;SDS011;3827;49.928;8.548;2022-10-18T11:03:56;2.13;;;0.90;;
7571;SDS011;3827;49.928;8.548;2022-10-18T11:06:28;2.03;;;0.90;;
7571;SDS011;3827;49.928;8.548;2022-10-18T11:09:02;1.25;;;0.70;;
7571;SDS011;3827;49.928;8.548;2022-10-18T11:11:37;2.35;;;0.88;;
7571;SDS011;3827;49.928;8.548;2022-10-18T11:14:12;1.40;;;0.70;;
7571;SDS011;3827;49.928;8.548;2022-10-18T11:16:49;1.60;;;0.80;;
7571;SDS011;3827;49.928;8.548;2022-10-18T11:19:36;2.47;;;0.80;;
7571;SDS011;3827;49.928;8.548;2022-10-18T11:22:08;1.88;;;0.80;;
7571;SDS011;3827;49.928;8.548;2022-10-18T11:24:40;1.77;;;0.80;;
7571;SDS011;3827;49.928;8.548;2022-10-18T11:27:09;1.83;;;0.73;;
7571;SDS011;3827;49.928;8.548;2022-10-18T11:29:47;1.40;;;0.68;;
7571;SDS011;3827;49.928;8.548;2022-10-18T11:32:28;1.35;;;0.80;;
7571;SDS011;3827;49.928;8.548;2022-10-18T11:35:06;2.50;;;1.00;;
7571;SDS011;3827;49.928;8.548;2022-10-18T11:37:52;1.40;;;0.70;;
7571;SDS011;3827;49.928;8.548;2022-10-18T11:40:41;2.20;;;0.80;;
7571;SDS011;3827;49.928;8.548;2022-10-18T11:43:18;2.47;;;0.70;;
7571;SDS011;3827;49.928;8.548;2022-10-18T11:45:51;0.60;;;0.60;;
7571;SDS011;3827;49.928;8.548;2022-10-18T11:48:30;0.98;;;0.70;;
7571;SDS011;3827;49.928;8.548;2022-10-18T11:51:14;1.23;;;0.73;;
7571;SDS011;3827;49.928;8.548;2022-10-18T11:53:49;1.17;;;0.65;;
7571;SDS011;3827;49.928;8.548;2022-10-18T11:56:31;0.68;;;0.60;;
7571;SDS011;3827;49.928;8.548;2022-10-18T11:59:12;0.60;;;0.50;;
7571;SDS011;3827;49.928;8.548;2022-10-18T12:01:50;1.88;;;0.50;;
7571;SDS011;3827;49.928;8.548;2022-10-18T12:04:23;0.90;;;0.50;;
7571;SDS011;3827;49.928;8.548;2022-10-18T12:06:56;0.70;;;0.60;;
7571;SDS011;3827;49.928;8.548;2022-10-18T12:09:24;0.40;;;0.40;;
7571;SDS011;3827;49.928;8.548;2022-10-18T12:12:00;1.30;;;0.40;;
7571;SDS011;3827;49.928;8.548;2022-10-18T12:14:34;1.23;;;0.40;;
7571;SDS011;3827;49.928;8.548;2022-10-18T12:17:04;1.30;;;0.50;;
7571;SDS011;3827;49.928;8.548;2022-10-18T12:19:38;2.22;;;0.50;;
7571;SDS011;3827;49.928;8.548;2022-10-18T12:22:09;1.20;;;0.40;;
7571;SDS011;3827;49.928;8.548;2022-10-18T12:24:41;0.60;;;0.60;;
7571;SDS011;3827;49.928;8.548;2022-10-18T12:27:08;3.00;;;0.60;;
7571;SDS011;3827;49.928;8.548;2022-10-18T12:29:41;0.80;;;0.50;;
7571;SDS011;3827;49.928;8.548;2022-10-18T12:32:15;1.30;;;0.50;;
7571;SDS011;3827;49.928;8.548;2022-10-18T12:34:46;0.98;;;0.70;;
7571;SDS011;3827;49.928;8.548;2022-10-18T12:40:30;0.50;;;0.40;;
7571;SDS011;3827;49.928;8.548;2022-10-18T12:43:06;1.23;;;0.50;;
7571;SDS011;3827;49.928;8.548;2022-10-18T12:45:45;1.10;;;0.63;;
7571;SDS011;3827;49.928;8.548;2022-10-18T12:48:24;1.08;;;0.50;;
7571;SDS011;3827;49.928;8.548;2022-10-18T12:51:03;0.50;;;0.40;;
7571;SDS011;3827;49.928;8.548;2022-10-18T12:53:31;1.20;;;0.43;;
7571;SDS011;3827;49.928;8.548;2022-10-18T13:02:22;0.40;;;0.40;;
7571;SDS011;3827;49.928;8.548;2022-10-18T13:04:54;2.15;;;0.55;;
7571;SDS011;3827;49.928;8.548;2022-10-18T13:07:32;1.90;;;0.60;;
7571;SDS011;3827;49.928;8.548;2022-10-18T13:15:57;0.45;;;0.43;;
7571;SDS011;3827;49.928;8.548;2022-10-18T13:18:31;0.50;;;0.50;;
7571;SDS011;3827;49.928;8.548;2022-10-18T13:21:09;0.40;;;0.40;;
7571;SDS011;3827;49.928;8.548;2022-10-18T13:23:45;0.63;;;0.50;;
7571;SDS011;3827;49.928;8.548;2022-10-18T13:26:35;1.00;;;0.65;;
7571;SDS011;3827;49.928;8.548;2022-10-18T13:29:25;0.77;;;0.50;;
7571;SDS011;3827;49.928;8.548;2022-10-18T13:32:16;1.02;;;0.68;;
7571;SDS011;3827;49.928;8.548;2022-10-18T13:34:53;0.60;;;0.60;;
7571;SDS011;3827;49.928;8.548;2022-10-18T13:37:21;1.58;;;0.50;;
7571;SDS011;3827;49.928;8.548;2022-10-18T13:39:50;1.20;;;0.63;;
7571;SDS011;3827;49.928;8.548;2022-10-18T13:42:28;1.60;;;0.80;;
7571;SDS011;3827;49.928;8.548;2022-10-18T13:51:32;1.70;;;0.60;;
7571;SDS011;3827;49.928;8.548;2022-10-18T13:54:12;2.75;;;0.50;;
7571;SDS011;3827;49.928;8.548;2022-10-18T13:56:55;1.92;;;0.70;;
7571;SDS011;3827;49.928;8.548;2022-10-18T14:02:38;0.90;;;0.60;;
7571;SDS011;3827;49.928;8.548;2022-10-18T14:05:13;0.93;;;0.60;;
7571;SDS011;3827;49.928;8.548;2022-10-18T14:07:50;1.30;;;0.73;;
7571;SDS011;3827;49.928;8.548;2022-10-18T14:10:24;1.77;;;0.70;;
7571;SDS011;3827;49.928;8.548;2022-10-18T14:12:58;1.60;;;0.70;;
7571;SDS011;3827;49.928;8.548;2022-10-18T14:15:30;0.77;;;0.60;;
7571;SDS011;3827;49.928;8.548;2022-10-18T14:18:03;1.10;;;0.55;;
7571;SDS011;3827;49.928;8.548;2022-10-18T14:20:38;2.25;;;0.50;;
7571;SDS011;3827;49.928;8.548;2022-10-18T14:23:11;1.10;;;0.60;;
7571;SDS011;3827;49.928;8.548;2022-10-18T14:25:41;0.80;;;0.60;;
7571;SDS011;3827;49.928;8.548;2022-10-18T14:28:10;0.52;;;0.52;;
7571;SDS011;3827;49.928;8.548;2022-10-18T14:30:51;1.55;;;0.60;;
7571;SDS011;3827;49.928;8.548;2022-10-18T14:33:23;1.90;;;0.70;;
7571;SDS011;3827;49.928;8.548;2022-10-18T14:35:58;1.35;;;0.70;;
7571;SDS011;3827;49.928;8.548;2022-10-18T14:38:28;1.55;;;0.60;;
7571;SDS011;3827;49.928;8.548;2022-10-18T14:41:03;0.63;;;0.60;;
7571;SDS011;3827;49.928;8.548;2022-10-18T14:43:31;0.60;;;0.60;;
7571;SDS011;3827;49.928;8.548;2022-10-18T14:46:07;1.33;;;0.70;;
7571;SDS011;3827;49.928;8.548;2022-10-18T14:48:35;1.70;;;0.80;;
7571;SDS011;3827;49.928;8.548;2022-10-18T14:51:02;0.73;;;0.70;;
7571;SDS011;3827;49.928;8.548;2022-10-18T14:53:40;1.75;;;0.70;;
7571;SDS011;3827;49.928;8.548;2022-10-18T14:56:07;2.75;;;0.70;;
7571;SDS011;3827;49.928;8.548;2022-10-18T14:58:47;1.60;;;0.52;;
7571;SDS011;3827;49.928;8.548;2022-10-18T15:01:15;2.60;;;0.60;;
7571;SDS011;3827;49.928;8.548;2022-10-18T15:03:43;2.45;;;0.80;;
7571;SDS011;3827;49.928;8.548;2022-10-18T15:06:10;5.32;;;0.80;;
7571;SDS011;3827;49.928;8.548;2022-10-18T15:08:43;2.20;;;0.75;;
7571;SDS011;3827;49.928;8.548;2022-10-18T15:11:12;1.17;;;0.70;;
7571;SDS011;3827;49.928;8.548;2022-10-18T15:13:42;2.50;;;0.80;;
7571;SDS011;3827;49.928;8.548;2022-10-18T15:16:14;2.10;;;0.70;;
7571;SDS011;3827;49.928;8.548;2022-10-18T15:18:41;1.17;;;0.60;;
7571;SDS011;3827;49.928;8.548;2022-10-18T15:21:09;1.73;;;0.90;;
7571;SDS011;3827;49.928;8.548;2022-10-18T15:23:47;0.70;;;0.60;;
7571;SDS011;3827;49.928;8.548;2022-10-18T15:26:18;1.73;;;0.80;;
7571;SDS011;3827;49.928;8.548;2022-10-18T15:28:48;0.55;;;0.55;;
7571;SDS011;3827;49.928;8.548;2022-10-18T15:31:21;1.08;;;0.82;;
7571;SDS011;3827;49.928;8.548;2022-10-18T15:33:50;1.50;;;0.80;;
7571;SDS011;3827;49.928;8.548;2022-10-18T15:36:20;1.30;;;0.70;;
7571;SDS011;3827;49.928;8.548;2022-10-18T15:38:57;0.60;;;0.60;;
7571;SDS011;3827;49.928;8.548;2022-10-18T15:41:37;1.00;;;0.60;;
7571;SDS011;3827;49.928;8.548;2022-10-18T15:44:07;0.70;;;0.70;;
7571;SDS011;3827;49.928;8.548;2022-10-18T15:46:43;0.60;;;0.60;;
7571;SDS011;3827;49.928;8.548;2022-10-18T15:52:28;1.10;;;1.00;;
7571;SDS011;3827;49.928;8.548;2022-10-18T15:54:58;1.15;;;1.00;;
7571;SDS011;3827;49.928;8.548;2022-10-18T15:57:27;2.70;;;1.30;;
7571;SDS011;3827;49.928;8.548;2022-10-18T15:59:57;1.08;;;1.08;;
7571;SDS011;3827;49.928;8.548;2022-10-18T16:02:28;1.17;;;1.08;;
7571;SDS011;3827;49.928;8.548;2022-10-18T16:04:57;1.00;;;0.95;;
7571;SDS011;3827;49.928;8.548;2022-10-18T16:07:24;1.40;;;1.13;;
7571;SDS011;3827;49.928;8.548;2022-10-18T16:09:51;1.35;;;1.20;;
7571;SDS011;3827;49.928;8.548;2022-10-18T16:12:19;1.08;;;1.00;;
7571;SDS011;3827;49.928;8.548;2022-10-18T16:14:46;0.90;;;0.90;;